sensor_id;sensor_type;location;lat;lon;timestamp;pressure;altitude;pressure_sealevel;temperature;humidity
6506;BME280;3286;49.858;8.768;2022-07-21T00:01:11;99366.53;;;23.95;60.18
6506;BME280;3286;49.858;8.768;2022-07-21T00:03:38;99380.03;;;23.83;60.19
6506;BME280;3286;49.858;8.768;2022-07-21T00:06:05;99373.50;;;24.14;59.22
6506;BME280;3286;49.858;8.768;2022-07-21T00:08:34;99376.28;;;23.96;60.13
6506;BME280;3286;49.858;8.768;2022-07-21T00:11:01;99375.47;;;23.83;60.23
6506;BME280;3286;49.858;8.768;2022-07-21T00:13:28;99373.34;;;23.97;59.85
6506;BME280;3286;49.858;8.768;2022-07-21T00:15:55;99371.88;;;24.13;59.52
6506;BME280;3286;49.858;8.768;2022-07-21T00:18:23;99374.09;;;24.28;57.46
6506;BME280;3286;49.858;8.768;2022-07-21T00:20:50;99379.47;;;24.16;57.83
6506;BME280;3286;49.858;8.768;2022-07-21T00:23:16;99390.03;;;24.06;57.91
6506;BME280;3286;49.858;8.768;2022-07-21T00:25:45;99393.75;;;23.81;58.46
6506;BME280;3286;49.858;8.768;2022-07-21T00:28:11;99397.78;;;24.02;57.10
6506;BME280;3286;49.858;8.768;2022-07-21T00:30:38;99401.50;;;23.90;57.56
6506;BME280;3286;49.858;8.768;2022-07-21T00:33:06;99398.22;;;23.99;57.19
6506;BME280;3286;49.858;8.768;2022-07-21T00:35:32;99406.84;;;23.66;58.02
6506;BME280;3286;49.858;8.768;2022-07-21T00:37:59;99400.44;;;23.91;56.89
6506;BME280;3286;49.858;8.768;2022-07-21T00:40:26;99398.31;;;23.81;57.15
6506;BME280;3286;49.858;8.768;2022-07-21T00:42:54;99410.38;;;23.66;58.10
6506;BME280;3286;49.858;8.768;2022-07-21T00:45:21;99409.56;;;23.78;57.55
6506;BME280;3286;49.858;8.768;2022-07-21T00:47:48;99407.00;;;23.71;57.44
6506;BME280;3286;49.858;8.768;2022-07-21T00:50:16;99416.72;;;23.72;57.71
6506;BME280;3286;49.858;8.768;2022-07-21T00:52:44;99420.78;;;23.63;58.08
6506;BME280;3286;49.858;8.768;2022-07-21T00:55:12;99427.72;;;23.58;57.97
6506;BME280;3286;49.858;8.768;2022-07-21T00:57:40;99439.13;;;23.72;57.52
6506;BME280;3286;49.858;8.768;2022-07-21T01:00:11;99443.69;;;23.84;57.16
6506;BME280;3286;49.858;8.768;2022-07-21T01:02:39;99435.03;;;23.82;57.13
6506;BME280;3286;49.858;8.768;2022-07-21T01:05:08;99444.44;;;23.91;56.84
6506;BME280;3286;49.858;8.768;2022-07-21T01:07:38;99438.59;;;23.94;57.17
6506;BME280;3286;49.858;8.768;2022-07-21T01:10:05;99436.50;;;23.54;57.04
6506;BME280;3286;49.858;8.768;2022-07-21T01:12:32;99437.34;;;23.05;58.85
6506;BME280;3286;49.858;8.768;2022-07-21T01:14:59;99436.47;;;23.42;57.24
6506;BME280;3286;49.858;8.768;2022-07-21T01:17:27;99440.78;;;22.94;58.68
6506;BME280;3286;49.858;8.768;2022-07-21T01:19:54;99446.88;;;22.89;58.97
6506;BME280;3286;49.858;8.768;2022-07-21T01:22:22;99452.38;;;22.57;59.76
6506;BME280;3286;49.858;8.768;2022-07-21T01:24:49;99447.34;;;21.20;64.87
6506;BME280;3286;49.858;8.768;2022-07-21T01:27:16;99435.41;;;22.12;62.34
6506;BME280;3286;49.858;8.768;2022-07-21T01:29:42;99443.03;;;22.16;62.76
6506;BME280;3286;49.858;8.768;2022-07-21T01:32:09;99435.53;;;22.43;62.09
6506;BME280;3286;49.858;8.768;2022-07-21T01:34:36;99440.56;;;22.77;60.97
6506;BME280;3286;49.858;8.768;2022-07-21T01:37:02;99437.16;;;22.25;62.86
6506;BME280;3286;49.858;8.768;2022-07-21T01:39:30;99440.31;;;23.15;60.37
6506;BME280;3286;49.858;8.768;2022-07-21T01:42:15;99453.97;;;22.65;61.53
6506;BME280;3286;49.858;8.768;2022-07-21T01:44:41;99448.16;;;22.68;61.82
6506;BME280;3286;49.858;8.768;2022-07-21T01:47:08;99442.78;;;23.17;60.25
6506;BME280;3286;49.858;8.768;2022-07-21T01:49:35;99445.09;;;23.32;59.45
6506;BME280;3286;49.858;8.768;2022-07-21T01:52:02;99437.69;;;23.58;58.76
6506;BME280;3286;49.858;8.768;2022-07-21T01:54:28;99430.56;;;23.33;59.44
6506;BME280;3286;49.858;8.768;2022-07-21T01:56:56;99420.06;;;22.94;60.46
6506;BME280;3286;49.858;8.768;2022-07-21T01:59:23;99438.25;;;22.18;63.67
6506;BME280;3286;49.858;8.768;2022-07-21T02:01:50;99437.19;;;22.63;62.20
6506;BME280;3286;49.858;8.768;2022-07-21T02:04:17;99443.03;;;22.78;61.48
6506;BME280;3286;49.858;8.768;2022-07-21T02:06:44;99436.53;;;22.67;61.81
6506;BME280;3286;49.858;8.768;2022-07-21T02:09:11;99431.97;;;22.49;61.91
6506;BME280;3286;49.858;8.768;2022-07-21T02:11:38;99444.31;;;22.76;61.36
6506;BME280;3286;49.858;8.768;2022-07-21T02:14:06;99446.41;;;22.92;60.78
6506;BME280;3286;49.858;8.768;2022-07-21T02:16:33;99450.75;;;22.56;62.15
6506;BME280;3286;49.858;8.768;2022-07-21T02:19:00;99449.44;;;22.40;62.49
6506;BME280;3286;49.858;8.768;2022-07-21T02:21:27;99450.91;;;22.36;62.45
6506;BME280;3286;49.858;8.768;2022-07-21T02:23:53;99447.38;;;21.91;64.57
6506;BME280;3286;49.858;8.768;2022-07-21T02:26:20;99454.50;;;22.29;62.71
6506;BME280;3286;49.858;8.768;2022-07-21T02:28:47;99443.94;;;22.72;61.58
6506;BME280;3286;49.858;8.768;2022-07-21T02:31:15;99443.03;;;21.90;64.49
6506;BME280;3286;49.858;8.768;2022-07-21T02:33:41;99449.44;;;22.14;64.15
6506;BME280;3286;49.858;8.768;2022-07-21T02:36:08;99449.34;;;22.03;63.91
6506;BME280;3286;49.858;8.768;2022-07-21T02:38:35;99449.75;;;22.06;64.49
6506;BME280;3286;49.858;8.768;2022-07-21T02:41:02;99467.03;;;21.53;65.58
6506;BME280;3286;49.858;8.768;2022-07-21T02:43:30;99490.03;;;20.96;68.37
6506;BME280;3286;49.858;8.768;2022-07-21T02:45:56;99465.97;;;21.15;67.87
6506;BME280;3286;49.858;8.768;2022-07-21T02:48:24;99475.47;;;21.56;66.25
6506;BME280;3286;49.858;8.768;2022-07-21T02:50:51;99479.66;;;21.00;68.39
6506;BME280;3286;49.858;8.768;2022-07-21T02:53:19;99489.41;;;20.94;68.48
6506;BME280;3286;49.858;8.768;2022-07-21T02:55:48;99493.84;;;21.21;68.08
6506;BME280;3286;49.858;8.768;2022-07-21T02:58:18;99492.00;;;22.24;63.72
6506;BME280;3286;49.858;8.768;2022-07-21T03:00:47;99496.59;;;21.92;65.16
6506;BME280;3286;49.858;8.768;2022-07-21T03:03:15;99510.44;;;21.95;64.85
6506;BME280;3286;49.858;8.768;2022-07-21T03:05:43;99511.00;;;21.72;65.77
6506;BME280;3286;49.858;8.768;2022-07-21T03:08:10;99511.69;;;21.93;64.63
6506;BME280;3286;49.858;8.768;2022-07-21T03:10:38;99516.63;;;21.57;66.02
6506;BME280;3286;49.858;8.768;2022-07-21T03:13:05;99527.50;;;22.08;64.30
6506;BME280;3286;49.858;8.768;2022-07-21T03:15:32;99532.03;;;21.82;64.89
6506;BME280;3286;49.858;8.768;2022-07-21T03:18:00;99524.38;;;20.81;69.35
6506;BME280;3286;49.858;8.768;2022-07-21T03:20:28;99526.44;;;21.38;66.66
6506;BME280;3286;49.858;8.768;2022-07-21T03:22:57;99533.66;;;21.44;66.93
6506;BME280;3286;49.858;8.768;2022-07-21T03:27:50;99518.06;;;21.60;66.29
6506;BME280;3286;49.858;8.768;2022-07-21T03:30:18;99521.84;;;20.93;68.42
6506;BME280;3286;49.858;8.768;2022-07-21T03:32:45;99524.56;;;20.86;68.31
6506;BME280;3286;49.858;8.768;2022-07-21T03:35:12;99525.78;;;20.56;70.17
6506;BME280;3286;49.858;8.768;2022-07-21T03:37:43;99531.34;;;20.68;69.71
6506;BME280;3286;49.858;8.768;2022-07-21T03:40:15;99541.31;;;21.86;65.12
6506;BME280;3286;49.858;8.768;2022-07-21T03:42:42;99532.44;;;21.33;67.29
6506;BME280;3286;49.858;8.768;2022-07-21T03:45:10;99534.41;;;21.97;64.54
6506;BME280;3286;49.858;8.768;2022-07-21T03:47:37;99533.31;;;22.37;63.10
6506;BME280;3286;49.858;8.768;2022-07-21T03:50:05;99544.06;;;22.11;63.75
6506;BME280;3286;49.858;8.768;2022-07-21T03:52:32;99546.19;;;22.28;63.44
6506;BME280;3286;49.858;8.768;2022-07-21T03:54:58;99543.88;;;22.06;63.83
6506;BME280;3286;49.858;8.768;2022-07-21T03:57:36;99544.09;;;22.30;63.36
6506;BME280;3286;49.858;8.768;2022-07-21T04:00:06;99533.84;;;22.71;61.98
6506;BME280;3286;49.858;8.768;2022-07-21T04:02:33;99543.13;;;22.75;60.92
6506;BME280;3286;49.858;8.768;2022-07-21T04:05:00;99550.22;;;22.19;62.91
6506;BME280;3286;49.858;8.768;2022-07-21T04:07:27;99549.59;;;22.17;63.26
6506;BME280;3286;49.858;8.768;2022-07-21T04:09:54;99546.13;;;22.09;63.90
6506;BME280;3286;49.858;8.768;2022-07-21T04:12:25;99543.22;;;22.36;62.99
6506;BME280;3286;49.858;8.768;2022-07-21T04:14:53;99541.69;;;21.51;66.06
6506;BME280;3286;49.858;8.768;2022-07-21T04:17:20;99533.22;;;22.43;62.61
6506;BME280;3286;49.858;8.768;2022-07-21T04:19:47;99534.50;;;22.41;62.66
6506;BME280;3286;49.858;8.768;2022-07-21T04:22:13;99538.00;;;22.48;62.24
6506;BME280;3286;49.858;8.768;2022-07-21T04:24:41;99530.53;;;22.43;62.53
6506;BME280;3286;49.858;8.768;2022-07-21T04:27:07;99543.50;;;22.03;63.84
6506;BME280;3286;49.858;8.768;2022-07-21T04:29:34;99545.28;;;21.77;64.47
6506;BME280;3286;49.858;8.768;2022-07-21T04:32:03;99545.16;;;21.06;67.21
6506;BME280;3286;49.858;8.768;2022-07-21T04:34:29;99544.56;;;21.95;63.78
6506;BME280;3286;49.858;8.768;2022-07-21T04:36:56;99549.22;;;21.28;66.16
6506;BME280;3286;49.858;8.768;2022-07-21T04:39:23;99556.84;;;21.84;63.86
6506;BME280;3286;49.858;8.768;2022-07-21T04:41:50;99559.78;;;22.08;61.83
6506;BME280;3286;49.858;8.768;2022-07-21T04:44:16;99558.88;;;21.89;61.29
6506;BME280;3286;49.858;8.768;2022-07-21T04:46:43;99558.63;;;21.51;61.89
6506;BME280;3286;49.858;8.768;2022-07-21T04:49:11;99560.50;;;20.65;64.57
6506;BME280;3286;49.858;8.768;2022-07-21T04:51:38;99552.63;;;20.90;64.03
6506;BME280;3286;49.858;8.768;2022-07-21T04:54:05;99555.91;;;22.04;60.51
6506;BME280;3286;49.858;8.768;2022-07-21T04:56:32;99557.44;;;22.43;58.31
6506;BME280;3286;49.858;8.768;2022-07-21T04:58:59;99558.56;;;21.06;61.71
6506;BME280;3286;49.858;8.768;2022-07-21T05:01:28;99568.16;;;22.25;58.60
6506;BME280;3286;49.858;8.768;2022-07-21T05:03:54;99573.50;;;22.32;57.85
6506;BME280;3286;49.858;8.768;2022-07-21T05:06:22;99571.13;;;22.42;58.20
6506;BME280;3286;49.858;8.768;2022-07-21T05:08:49;99573.75;;;21.46;59.99
6506;BME280;3286;49.858;8.768;2022-07-21T05:11:16;99577.16;;;22.37;57.84
6506;BME280;3286;49.858;8.768;2022-07-21T05:13:42;99583.13;;;22.14;59.38
6506;BME280;3286;49.858;8.768;2022-07-21T05:16:09;99581.28;;;22.72;57.53
6506;BME280;3286;49.858;8.768;2022-07-21T05:18:36;99579.34;;;21.90;59.60
6506;BME280;3286;49.858;8.768;2022-07-21T05:21:03;99585.66;;;20.57;64.95
6506;BME280;3286;49.858;8.768;2022-07-21T05:23:31;99584.31;;;22.25;59.58
6506;BME280;3286;49.858;8.768;2022-07-21T05:25:57;99596.59;;;22.46;58.78
6506;BME280;3286;49.858;8.768;2022-07-21T05:28:24;99589.13;;;22.16;59.53
6506;BME280;3286;49.858;8.768;2022-07-21T05:30:53;99580.94;;;22.62;57.82
6506;BME280;3286;49.858;8.768;2022-07-21T05:33:19;99579.41;;;22.47;57.60
6506;BME280;3286;49.858;8.768;2022-07-21T05:35:46;99591.34;;;21.35;61.20
6506;BME280;3286;49.858;8.768;2022-07-21T05:38:13;99592.31;;;22.06;59.47
6506;BME280;3286;49.858;8.768;2022-07-21T05:40:41;99587.50;;;23.35;55.91
6506;BME280;3286;49.858;8.768;2022-07-21T05:43:07;99585.25;;;23.32;55.45
6506;BME280;3286;49.858;8.768;2022-07-21T05:45:34;99586.03;;;22.95;55.93
6506;BME280;3286;49.858;8.768;2022-07-21T05:48:01;99582.41;;;23.27;54.94
6506;BME280;3286;49.858;8.768;2022-07-21T05:50:28;99586.25;;;22.94;55.64
6506;BME280;3286;49.858;8.768;2022-07-21T05:52:54;99582.88;;;22.22;57.70
6506;BME280;3286;49.858;8.768;2022-07-21T05:55:21;99574.25;;;22.71;56.69
6506;BME280;3286;49.858;8.768;2022-07-21T05:57:49;99573.88;;;23.49;54.17
6506;BME280;3286;49.858;8.768;2022-07-21T06:00:17;99578.13;;;23.56;53.80
6506;BME280;3286;49.858;8.768;2022-07-21T06:02:44;99575.91;;;22.72;55.15
6506;BME280;3286;49.858;8.768;2022-07-21T06:05:11;99587.66;;;21.29;57.98
6506;BME280;3286;49.858;8.768;2022-07-21T06:07:38;99586.13;;;21.99;56.44
6506;BME280;3286;49.858;8.768;2022-07-21T06:10:06;99584.47;;;22.30;55.89
6506;BME280;3286;49.858;8.768;2022-07-21T06:12:33;99597.03;;;22.11;57.17
6506;BME280;3286;49.858;8.768;2022-07-21T06:15:01;99594.00;;;22.83;54.54
6506;BME280;3286;49.858;8.768;2022-07-21T06:17:27;99592.38;;;23.01;54.30
6506;BME280;3286;49.858;8.768;2022-07-21T06:19:56;99601.56;;;23.37;53.92
6506;BME280;3286;49.858;8.768;2022-07-21T06:22:23;99606.41;;;22.02;58.44
6506;BME280;3286;49.858;8.768;2022-07-21T06:24:50;99604.94;;;22.89;55.96
6506;BME280;3286;49.858;8.768;2022-07-21T06:27:17;99604.94;;;23.51;54.81
6506;BME280;3286;49.858;8.768;2022-07-21T06:29:43;99618.47;;;22.56;56.33
6506;BME280;3286;49.858;8.768;2022-07-21T06:32:11;99619.31;;;22.57;56.72
6506;BME280;3286;49.858;8.768;2022-07-21T06:34:38;99620.22;;;22.37;57.71
6506;BME280;3286;49.858;8.768;2022-07-21T06:37:05;99620.75;;;22.85;56.38
6506;BME280;3286;49.858;8.768;2022-07-21T06:39:31;99618.28;;;23.02;55.21
6506;BME280;3286;49.858;8.768;2022-07-21T06:41:59;99610.63;;;23.24;54.69
6506;BME280;3286;49.858;8.768;2022-07-21T06:44:26;99613.16;;;22.50;55.65
6506;BME280;3286;49.858;8.768;2022-07-21T06:46:53;99613.28;;;23.06;54.17
6506;BME280;3286;49.858;8.768;2022-07-21T06:49:21;99614.56;;;22.78;55.05
6506;BME280;3286;49.858;8.768;2022-07-21T06:51:47;99608.88;;;23.11;54.63
6506;BME280;3286;49.858;8.768;2022-07-21T06:54:14;99623.00;;;22.31;55.07
6506;BME280;3286;49.858;8.768;2022-07-21T06:56:41;99612.16;;;22.69;54.40
6506;BME280;3286;49.858;8.768;2022-07-21T06:59:07;99617.59;;;22.88;53.62
6506;BME280;3286;49.858;8.768;2022-07-21T07:01:34;99610.59;;;23.62;51.98
6506;BME280;3286;49.858;8.768;2022-07-21T07:04:01;99618.16;;;23.71;51.56
6506;BME280;3286;49.858;8.768;2022-07-21T07:06:29;99616.69;;;23.38;52.43
6506;BME280;3286;49.858;8.768;2022-07-21T07:08:56;99611.72;;;23.72;51.92
6506;BME280;3286;49.858;8.768;2022-07-21T07:11:23;99627.06;;;22.40;55.25
6506;BME280;3286;49.858;8.768;2022-07-21T07:13:49;99634.94;;;21.64;57.45
6506;BME280;3286;49.858;8.768;2022-07-21T07:16:16;99629.25;;;23.44;52.18
6506;BME280;3286;49.858;8.768;2022-07-21T07:18:43;99627.47;;;23.38;51.77
6506;BME280;3286;49.858;8.768;2022-07-21T07:21:09;99629.44;;;24.96;48.61
6506;BME280;3286;49.858;8.768;2022-07-21T07:23:37;99636.16;;;24.81;48.48
6506;BME280;3286;49.858;8.768;2022-07-21T07:26:04;99631.06;;;24.19;50.48
6506;BME280;3286;49.858;8.768;2022-07-21T07:28:31;99636.72;;;23.24;52.20
6506;BME280;3286;49.858;8.768;2022-07-21T07:30:58;99637.84;;;23.91;50.65
6506;BME280;3286;49.858;8.768;2022-07-21T07:33:24;99645.50;;;22.36;53.52
6506;BME280;3286;49.858;8.768;2022-07-21T07:35:53;99639.94;;;22.31;54.27
6506;BME280;3286;49.858;8.768;2022-07-21T07:38:20;99638.63;;;23.79;50.69
6506;BME280;3286;49.858;8.768;2022-07-21T07:40:49;99640.75;;;23.40;51.53
6506;BME280;3286;49.858;8.768;2022-07-21T07:43:15;99641.13;;;23.93;49.26
6506;BME280;3286;49.858;8.768;2022-07-21T07:45:42;99637.72;;;24.58;49.19
6506;BME280;3286;49.858;8.768;2022-07-21T07:48:09;99645.09;;;25.29;46.01
6506;BME280;3286;49.858;8.768;2022-07-21T07:50:35;99646.03;;;25.11;45.92
6506;BME280;3286;49.858;8.768;2022-07-21T07:53:02;99659.19;;;24.11;49.88
6506;BME280;3286;49.858;8.768;2022-07-21T07:55:29;99661.19;;;23.48;50.52
6506;BME280;3286;49.858;8.768;2022-07-21T07:57:57;99654.13;;;24.76;48.06
6506;BME280;3286;49.858;8.768;2022-07-21T08:00:23;99652.91;;;23.24;50.75
6506;BME280;3286;49.858;8.768;2022-07-21T08:02:50;99656.31;;;22.29;54.57
6506;BME280;3286;49.858;8.768;2022-07-21T08:05:17;99642.88;;;23.12;52.37
6506;BME280;3286;49.858;8.768;2022-07-21T08:07:43;99641.94;;;24.12;48.98
6506;BME280;3286;49.858;8.768;2022-07-21T08:10:11;99646.38;;;25.51;46.58
6506;BME280;3286;49.858;8.768;2022-07-21T08:12:39;99638.53;;;26.36;44.70
6506;BME280;3286;49.858;8.768;2022-07-21T08:15:08;99634.44;;;26.68;43.82
6506;BME280;3286;49.858;8.768;2022-07-21T08:17:35;99629.00;;;26.68;43.65
6506;BME280;3286;49.858;8.768;2022-07-21T08:20:03;99618.75;;;27.04;42.74
6506;BME280;3286;49.858;8.768;2022-07-21T08:22:29;99637.56;;;26.94;43.20
6506;BME280;3286;49.858;8.768;2022-07-21T08:24:56;99634.84;;;26.59;42.97
6506;BME280;3286;49.858;8.768;2022-07-21T08:27:23;99632.03;;;27.23;41.77
6506;BME280;3286;49.858;8.768;2022-07-21T08:29:49;99636.00;;;25.48;43.96
6506;BME280;3286;49.858;8.768;2022-07-21T08:32:19;99636.84;;;25.48;45.13
6506;BME280;3286;49.858;8.768;2022-07-21T08:34:46;99631.97;;;26.83;42.34
6506;BME280;3286;49.858;8.768;2022-07-21T08:37:13;99635.84;;;26.70;42.91
6506;BME280;3286;49.858;8.768;2022-07-21T08:39:40;99625.41;;;27.13;42.27
6506;BME280;3286;49.858;8.768;2022-07-21T08:42:07;99619.06;;;27.69;41.00
6506;BME280;3286;49.858;8.768;2022-07-21T08:44:34;99637.81;;;27.31;41.15
6506;BME280;3286;49.858;8.768;2022-07-21T08:47:01;99631.41;;;25.89;41.95
6506;BME280;3286;49.858;8.768;2022-07-21T08:49:30;99617.00;;;26.29;42.85
6506;BME280;3286;49.858;8.768;2022-07-21T08:51:58;99626.06;;;26.69;42.19
6506;BME280;3286;49.858;8.768;2022-07-21T08:54:25;99624.34;;;24.64;46.45
6506;BME280;3286;49.858;8.768;2022-07-21T08:56:51;99637.91;;;25.23;49.07
6506;BME280;3286;49.858;8.768;2022-07-21T08:59:19;99635.16;;;25.71;48.25
6506;BME280;3286;49.858;8.768;2022-07-21T09:01:46;99636.16;;;26.11;46.36
6506;BME280;3286;49.858;8.768;2022-07-21T09:04:20;99630.22;;;25.97;46.25
6506;BME280;3286;49.858;8.768;2022-07-21T09:06:53;99624.63;;;25.86;45.98
6506;BME280;3286;49.858;8.768;2022-07-21T09:09:21;99627.34;;;25.22;47.66
6506;BME280;3286;49.858;8.768;2022-07-21T09:11:48;99629.00;;;25.75;46.93
6506;BME280;3286;49.858;8.768;2022-07-21T09:14:17;99629.25;;;26.32;46.32
6506;BME280;3286;49.858;8.768;2022-07-21T09:16:45;99632.88;;;26.38;46.41
6506;BME280;3286;49.858;8.768;2022-07-21T09:19:17;99630.88;;;26.16;47.40
6506;BME280;3286;49.858;8.768;2022-07-21T09:21:44;99631.72;;;26.04;47.88
6506;BME280;3286;49.858;8.768;2022-07-21T09:24:14;99631.94;;;26.03;47.29
6506;BME280;3286;49.858;8.768;2022-07-21T09:27:04;99628.59;;;26.25;47.58
6506;BME280;3286;49.858;8.768;2022-07-21T09:29:38;99622.34;;;26.24;48.05
6506;BME280;3286;49.858;8.768;2022-07-21T09:32:17;99624.66;;;26.15;49.33
6506;BME280;3286;49.858;8.768;2022-07-21T09:34:44;99626.31;;;26.34;47.08
6506;BME280;3286;49.858;8.768;2022-07-21T09:37:11;99621.94;;;26.50;48.08
6506;BME280;3286;49.858;8.768;2022-07-21T09:39:46;99611.19;;;27.28;45.66
6506;BME280;3286;49.858;8.768;2022-07-21T09:42:15;99617.59;;;27.39;44.46
6506;BME280;3286;49.858;8.768;2022-07-21T09:44:44;99621.22;;;26.08;47.78
6506;BME280;3286;49.858;8.768;2022-07-21T09:47:12;99623.41;;;25.94;48.14
6506;BME280;3286;49.858;8.768;2022-07-21T09:49:40;99627.19;;;26.10;46.73
6506;BME280;3286;49.858;8.768;2022-07-21T09:52:28;99623.03;;;26.31;46.63
6506;BME280;3286;49.858;8.768;2022-07-21T09:54:58;99624.78;;;26.55;45.66
6506;BME280;3286;49.858;8.768;2022-07-21T09:57:26;99617.78;;;26.76;44.78
6506;BME280;3286;49.858;8.768;2022-07-21T09:59:53;99617.94;;;25.77;44.68
6506;BME280;3286;49.858;8.768;2022-07-21T10:02:21;99605.63;;;25.69;45.41
6506;BME280;3286;49.858;8.768;2022-07-21T10:04:56;99609.97;;;26.97;41.77
6506;BME280;3286;49.858;8.768;2022-07-21T10:07:25;99610.16;;;27.52;39.25
6506;BME280;3286;49.858;8.768;2022-07-21T10:09:52;99609.63;;;27.99;38.03
6506;BME280;3286;49.858;8.768;2022-07-21T10:12:22;99617.97;;;26.86;40.89
6506;BME280;3286;49.858;8.768;2022-07-21T10:14:49;99605.81;;;27.11;40.51
6506;BME280;3286;49.858;8.768;2022-07-21T10:17:17;99604.56;;;28.13;38.68
6506;BME280;3286;49.858;8.768;2022-07-21T10:19:53;99597.22;;;28.36;38.31
6506;BME280;3286;49.858;8.768;2022-07-21T10:22:34;99590.06;;;29.00;36.59
6506;BME280;3286;49.858;8.768;2022-07-21T10:25:04;99599.72;;;29.29;36.19
6506;BME280;3286;49.858;8.768;2022-07-21T10:27:33;99600.75;;;28.37;37.21
6506;BME280;3286;49.858;8.768;2022-07-21T10:30:01;99586.53;;;29.00;35.34
6506;BME280;3286;49.858;8.768;2022-07-21T10:32:31;99591.34;;;28.87;35.97
6506;BME280;3286;49.858;8.768;2022-07-21T10:35:00;99591.19;;;29.58;35.03
6506;BME280;3286;49.858;8.768;2022-07-21T10:37:46;99597.63;;;27.28;38.27
6506;BME280;3286;49.858;8.768;2022-07-21T10:40:37;99601.56;;;25.84;41.15
6506;BME280;3286;49.858;8.768;2022-07-21T10:43:41;99594.06;;;27.45;39.10
6506;BME280;3286;49.858;8.768;2022-07-21T10:46:36;99588.03;;;27.60;38.57
6506;BME280;3286;49.858;8.768;2022-07-21T10:49:05;99584.78;;;28.78;37.47
6506;BME280;3286;49.858;8.768;2022-07-21T10:51:36;99573.63;;;29.33;35.65
6506;BME280;3286;49.858;8.768;2022-07-21T10:54:23;99582.28;;;27.56;38.80
6506;BME280;3286;49.858;8.768;2022-07-21T10:57:25;99580.72;;;28.86;36.74
6506;BME280;3286;49.858;8.768;2022-07-21T11:00:23;99573.56;;;30.07;34.91
6506;BME280;3286;49.858;8.768;2022-07-21T11:02:55;99574.88;;;29.73;33.67
6506;BME280;3286;49.858;8.768;2022-07-21T11:05:23;99568.97;;;29.23;34.58
6506;BME280;3286;49.858;8.768;2022-07-21T11:08:13;99575.00;;;27.84;37.14
6506;BME280;3286;49.858;8.768;2022-07-21T11:10:42;99576.28;;;27.54;37.60
6506;BME280;3286;49.858;8.768;2022-07-21T11:13:09;99575.00;;;27.84;38.25
6506;BME280;3286;49.858;8.768;2022-07-21T11:15:45;99564.88;;;29.20;35.11
6506;BME280;3286;49.858;8.768;2022-07-21T11:18:16;99563.44;;;29.82;34.00
6506;BME280;3286;49.858;8.768;2022-07-21T11:20:43;99555.28;;;29.76;34.05
6506;BME280;3286;49.858;8.768;2022-07-21T11:23:10;99564.69;;;28.46;34.75
6506;BME280;3286;49.858;8.768;2022-07-21T11:25:36;99558.84;;;28.00;35.38
6506;BME280;3286;49.858;8.768;2022-07-21T11:28:16;99561.97;;;26.41;38.94
6506;BME280;3286;49.858;8.768;2022-07-21T11:30:44;99554.34;;;27.56;36.93
6506;BME280;3286;49.858;8.768;2022-07-21T11:33:20;99547.19;;;28.75;34.77
6506;BME280;3286;49.858;8.768;2022-07-21T11:35:47;99545.66;;;28.14;34.14
6506;BME280;3286;49.858;8.768;2022-07-21T11:38:14;99546.97;;;27.79;35.20
6506;BME280;3286;49.858;8.768;2022-07-21T11:40:40;99547.06;;;26.09;37.97
6506;BME280;3286;49.858;8.768;2022-07-21T11:43:07;99545.81;;;27.47;36.02
6506;BME280;3286;49.858;8.768;2022-07-21T11:45:34;99542.56;;;28.70;34.15
6506;BME280;3286;49.858;8.768;2022-07-21T11:48:02;99543.19;;;28.12;33.83
6506;BME280;3286;49.858;8.768;2022-07-21T11:50:31;99535.09;;;28.93;32.08
6506;BME280;3286;49.858;8.768;2022-07-21T11:53:00;99533.78;;;29.01;32.30
6506;BME280;3286;49.858;8.768;2022-07-21T11:55:28;99537.59;;;29.95;30.62
6506;BME280;3286;49.858;8.768;2022-07-21T11:57:55;99531.31;;;29.94;30.09
6506;BME280;3286;49.858;8.768;2022-07-21T12:00:24;99528.81;;;29.56;30.21
6506;BME280;3286;49.858;8.768;2022-07-21T12:02:51;99528.63;;;30.30;29.21
6506;BME280;3286;49.858;8.768;2022-07-21T12:05:20;99529.16;;;30.38;29.17
6506;BME280;3286;49.858;8.768;2022-07-21T12:07:49;99526.66;;;30.57;29.65
6506;BME280;3286;49.858;8.768;2022-07-21T12:10:22;99532.47;;;30.14;29.55
6506;BME280;3286;49.858;8.768;2022-07-21T12:12:50;99538.13;;;29.86;29.88
6506;BME280;3286;49.858;8.768;2022-07-21T12:15:19;99527.25;;;30.12;29.49
6506;BME280;3286;49.858;8.768;2022-07-21T12:17:47;99536.22;;;29.92;30.10
6506;BME280;3286;49.858;8.768;2022-07-21T12:20:18;99534.03;;;29.94;30.54
6506;BME280;3286;49.858;8.768;2022-07-21T12:22:51;99519.00;;;29.45;30.47
6506;BME280;3286;49.858;8.768;2022-07-21T12:25:29;99525.56;;;29.59;31.08
6506;BME280;3286;49.858;8.768;2022-07-21T12:27:56;99518.19;;;29.55;31.51
6506;BME280;3286;49.858;8.768;2022-07-21T12:30:31;99521.50;;;29.67;31.38
6506;BME280;3286;49.858;8.768;2022-07-21T12:33:02;99521.59;;;28.66;32.50
6506;BME280;3286;49.858;8.768;2022-07-21T12:35:29;99526.34;;;27.50;34.78
6506;BME280;3286;49.858;8.768;2022-07-21T12:38:02;99523.44;;;29.03;32.17
6506;BME280;3286;49.858;8.768;2022-07-21T12:40:30;99520.31;;;28.03;34.23
6506;BME280;3286;49.858;8.768;2022-07-21T12:43:05;99526.28;;;27.72;33.57
6506;BME280;3286;49.858;8.768;2022-07-21T12:45:47;99528.09;;;26.78;35.91
6506;BME280;3286;49.858;8.768;2022-07-21T12:48:16;99533.75;;;28.96;32.90
6506;BME280;3286;49.858;8.768;2022-07-21T12:50:57;99530.56;;;28.61;32.97
6506;BME280;3286;49.858;8.768;2022-07-21T12:53:27;99525.69;;;28.63;32.24
6506;BME280;3286;49.858;8.768;2022-07-21T12:55:54;99527.13;;;28.05;34.04
6506;BME280;3286;49.858;8.768;2022-07-21T12:58:21;99529.25;;;29.32;31.69
6506;BME280;3286;49.858;8.768;2022-07-21T13:00:47;99538.03;;;26.03;36.61
6506;BME280;3286;49.858;8.768;2022-07-21T13:03:15;99536.00;;;26.79;35.37
6506;BME280;3286;49.858;8.768;2022-07-21T13:05:41;99535.06;;;28.45;33.67
6506;BME280;3286;49.858;8.768;2022-07-21T13:08:08;99531.44;;;28.34;33.00
6506;BME280;3286;49.858;8.768;2022-07-21T13:10:37;99537.97;;;27.28;34.13
6506;BME280;3286;49.858;8.768;2022-07-21T13:13:03;99529.41;;;27.37;34.62
6506;BME280;3286;49.858;8.768;2022-07-21T13:15:30;99531.41;;;27.24;35.11
6506;BME280;3286;49.858;8.768;2022-07-21T13:17:57;99517.03;;;28.01;34.21
6506;BME280;3286;49.858;8.768;2022-07-21T13:20:24;99526.97;;;29.77;31.51
6506;BME280;3286;49.858;8.768;2022-07-21T13:22:51;99525.50;;;28.37;32.71
6506;BME280;3286;49.858;8.768;2022-07-21T13:25:18;99517.03;;;29.30;31.53
6506;BME280;3286;49.858;8.768;2022-07-21T13:27:46;99521.75;;;28.48;32.67
6506;BME280;3286;49.858;8.768;2022-07-21T13:30:12;99513.47;;;29.24;31.85
6506;BME280;3286;49.858;8.768;2022-07-21T13:32:39;99517.25;;;29.13;31.40